createdAt,value
2023-03-14T00:00:31.158Z,987.50
2023-03-14T00:03:04.469Z,987.50
2023-03-14T00:05:37.376Z,987.50
2023-03-14T00:08:10.341Z,987.49
2023-03-14T00:10:43.459Z,987.52
2023-03-14T00:13:16.246Z,987.53
2023-03-14T00:15:49.251Z,987.55
2023-03-14T00:18:22.282Z,987.53
2023-03-14T00:20:55.484Z,987.52
2023-03-14T00:23:28.501Z,987.52
2023-03-14T00:26:01.470Z,987.52
2023-03-14T00:28:34.465Z,987.48
2023-03-14T00:31:07.695Z,987.45
2023-03-14T00:33:41.619Z,987.42
2023-03-14T00:36:14.549Z,987.42
2023-03-14T00:38:47.526Z,987.42
2023-03-14T00:41:20.526Z,987.42
2023-03-14T00:43:53.493Z,987.39
2023-03-14T00:46:26.600Z,987.38
2023-03-14T00:48:59.644Z,987.35
2023-03-14T00:51:32.537Z,987.28
2023-03-14T00:54:05.454Z,987.26
2023-03-14T00:56:38.397Z,987.24
2023-03-14T00:59:11.512Z,987.22
2023-03-14T01:01:44.666Z,987.21
2023-03-14T01:04:17.580Z,987.22
2023-03-14T01:06:50.527Z,987.24
2023-03-14T01:09:23.285Z,987.28
2023-03-14T01:11:56.694Z,987.31
2023-03-14T01:14:30.237Z,987.34
2023-03-14T01:17:03.571Z,987.37
2023-03-14T01:19:36.575Z,987.40
2023-03-14T01:22:09.719Z,987.41
2023-03-14T01:24:43.628Z,987.37
2023-03-14T01:27:16.554Z,987.35
2023-03-14T01:29:49.611Z,987.32
2023-03-14T01:32:22.544Z,987.30
2023-03-14T01:34:55.805Z,987.28
2023-03-14T01:37:29.583Z,987.27
2023-03-14T01:40:02.686Z,987.25
2023-03-14T01:42:35.631Z,987.20
2023-03-14T01:45:08.623Z,987.15
2023-03-14T01:47:41.616Z,987.10
2023-03-14T01:50:14.583Z,987.07
2023-03-14T01:52:47.596Z,987.04
2023-03-14T01:55:20.567Z,986.99
2023-03-14T01:57:53.550Z,986.93
2023-03-14T02:00:26.602Z,986.88
2023-03-14T02:02:59.467Z,986.83
2023-03-14T02:05:32.646Z,986.79
2023-03-14T02:08:05.680Z,986.75
2023-03-14T02:10:38.817Z,986.71
2023-03-14T02:13:12.692Z,986.66
2023-03-14T02:15:59.769Z,986.62
2023-03-14T02:18:33.639Z,986.58
2023-03-14T02:21:06.673Z,986.51
2023-03-14T02:23:39.673Z,986.47
2023-03-14T02:26:12.643Z,986.43
2023-03-14T02:28:46.018Z,986.41
2023-03-14T02:31:19.353Z,986.36
2023-03-14T02:33:52.699Z,986.34
2023-03-14T02:36:25.878Z,986.33
2023-03-14T02:38:59.743Z,986.30
2023-03-14T02:41:32.640Z,986.27
2023-03-14T02:44:05.751Z,986.23
2023-03-14T02:46:38.759Z,986.19
2023-03-14T02:49:11.502Z,986.16
2023-03-14T02:51:44.425Z,986.13
2023-03-14T02:54:17.406Z,986.13
2023-03-14T02:56:50.683Z,986.10
2023-03-14T02:59:23.995Z,986.08
2023-03-14T03:01:57.593Z,986.07
2023-03-14T03:04:30.668Z,986.07
2023-03-14T03:07:03.871Z,986.05
2023-03-14T03:09:36.658Z,986.03
2023-03-14T03:12:09.710Z,986.00
2023-03-14T03:14:42.690Z,985.97
2023-03-14T03:17:15.454Z,985.95
2023-03-14T03:19:48.764Z,985.91
2023-03-14T03:22:21.734Z,985.86
2023-03-14T03:24:54.677Z,985.84
2023-03-14T03:27:28.628Z,985.80
2023-03-14T03:30:01.770Z,985.75
2023-03-14T03:32:34.717Z,985.71
2023-03-14T03:35:07.817Z,985.63
2023-03-14T03:37:40.813Z,985.57
2023-03-14T03:40:13.864Z,985.53
2023-03-14T03:42:47.825Z,985.51
2023-03-14T03:45:20.762Z,985.46
2023-03-14T03:47:53.738Z,985.41
2023-03-14T03:50:40.749Z,985.36
2023-03-14T03:53:17.775Z,985.31
2023-03-14T03:55:46.796Z,985.28
2023-03-14T03:58:19.646Z,985.26
2023-03-14T04:00:52.699Z,985.26
2023-03-14T04:03:26.596Z,985.24
2023-03-14T04:05:59.669Z,985.23
2023-03-14T04:08:32.559Z,985.21
2023-03-14T04:11:05.975Z,985.21
2023-03-14T04:13:39.529Z,985.21
2023-03-14T04:16:12.670Z,985.23
2023-03-14T04:18:45.871Z,985.23
2023-03-14T04:21:18.770Z,985.24
2023-03-14T04:23:51.808Z,985.25
2023-03-14T04:26:25.721Z,985.26
2023-03-14T04:28:58.871Z,985.24
2023-03-14T04:31:31.608Z,985.26
2023-03-14T04:34:04.834Z,985.25
2023-03-14T04:36:39.725Z,985.24
2023-03-14T04:39:10.965Z,985.23
2023-03-14T04:41:44.825Z,985.24
2023-03-14T04:44:17.854Z,985.24
2023-03-14T04:46:50.819Z,985.24
2023-03-14T04:49:23.664Z,985.22
2023-03-14T04:51:56.910Z,985.21
2023-03-14T04:54:29.605Z,985.21
2023-03-14T04:57:02.582Z,985.18
2023-03-14T04:59:35.809Z,985.14
2023-03-14T05:02:08.736Z,985.08
2023-03-14T05:04:41.618Z,985.05
2023-03-14T05:07:15.123Z,985.05
2023-03-14T05:09:53.824Z,985.04
2023-03-14T05:12:26.560Z,985.00
2023-03-14T05:15:00.032Z,984.97
2023-03-14T05:17:33.823Z,984.95
2023-03-14T05:20:12.913Z,984.92
2023-03-14T05:22:45.876Z,984.91
2023-03-14T05:25:18.893Z,984.91
2023-03-14T05:27:51.715Z,984.89
2023-03-14T05:30:24.752Z,984.88
2023-03-14T05:32:57.870Z,984.87
2023-03-14T05:35:30.932Z,984.84
2023-03-14T05:38:04.076Z,984.81
2023-03-14T05:40:37.988Z,984.81
2023-03-14T05:43:11.094Z,984.79
2023-03-14T05:45:44.987Z,984.80
2023-03-14T05:48:17.899Z,984.78
2023-03-14T05:50:50.932Z,984.78
2023-03-14T05:53:23.920Z,984.76
2023-03-14T05:55:58.176Z,984.76
2023-03-14T05:58:31.851Z,984.75
2023-03-14T06:01:04.904Z,984.72
2023-03-14T06:03:38.030Z,984.73
2023-03-14T06:06:10.985Z,984.71
2023-03-14T06:08:44.098Z,984.68
2023-03-14T06:11:18.037Z,984.69
2023-03-14T06:13:50.920Z,984.70
2023-03-14T06:16:24.024Z,984.67
2023-03-14T06:18:56.785Z,984.69
2023-03-14T06:21:29.819Z,984.71
2023-03-14T06:24:02.811Z,984.72
2023-03-14T06:26:35.811Z,984.74
2023-03-14T06:29:09.165Z,984.74
2023-03-14T06:31:43.139Z,984.75
2023-03-14T06:34:16.976Z,984.77
2023-03-14T06:36:49.762Z,984.79
2023-03-14T06:39:22.812Z,984.79
2023-03-14T06:41:56.214Z,984.81
2023-03-14T06:44:29.028Z,984.82
2023-03-14T06:47:02.017Z,984.82
2023-03-14T06:49:38.525Z,984.80
2023-03-14T06:52:12.065Z,984.79
2023-03-14T06:54:44.777Z,984.76
2023-03-14T06:57:18.034Z,984.75
2023-03-14T06:59:51.173Z,984.74
2023-03-14T07:02:39.961Z,984.73
2023-03-14T07:04:57.858Z,984.73
2023-03-14T07:07:31.009Z,984.72
2023-03-14T07:10:03.758Z,984.71
2023-03-14T07:12:37.065Z,984.69
2023-03-14T07:15:18.078Z,984.69
2023-03-14T07:17:43.148Z,984.69
2023-03-14T07:20:16.068Z,984.68
2023-03-14T07:22:49.072Z,984.65
2023-03-14T07:25:22.224Z,984.65
2023-03-14T07:27:55.910Z,984.64
2023-03-14T07:30:29.185Z,984.62
2023-03-14T07:33:02.234Z,984.61
2023-03-14T07:35:34.872Z,984.60
2023-03-14T07:38:08.132Z,984.58
2023-03-14T07:40:41.083Z,984.55
2023-03-14T07:43:14.246Z,984.54
2023-03-14T07:45:50.771Z,984.55
2023-03-14T07:48:19.890Z,984.55
2023-03-14T07:50:53.233Z,984.56
2023-03-14T07:53:25.914Z,984.57
2023-03-14T07:55:59.189Z,984.57
2023-03-14T07:58:31.850Z,984.55
2023-03-14T08:01:04.981Z,984.54
2023-03-14T08:03:38.233Z,984.54
2023-03-14T08:06:11.221Z,984.54
2023-03-14T08:08:44.154Z,984.54
2023-03-14T08:11:17.147Z,984.55
2023-03-14T08:13:49.984Z,984.57
2023-03-14T08:16:23.085Z,984.60
2023-03-14T08:18:55.844Z,984.64
2023-03-14T08:21:28.955Z,984.69
2023-03-14T08:24:02.236Z,984.72
2023-03-14T08:26:34.882Z,984.76
2023-03-14T08:29:08.284Z,984.81
2023-03-14T08:31:40.932Z,984.85
2023-03-14T08:34:14.020Z,984.87
2023-03-14T08:36:47.187Z,984.90
2023-03-14T08:39:20.230Z,984.94
2023-03-14T08:41:53.195Z,984.94
2023-03-14T08:44:26.296Z,984.93
2023-03-14T08:46:59.346Z,984.97
2023-03-14T08:49:32.265Z,984.97
2023-03-14T08:52:05.297Z,984.98
2023-03-14T08:54:38.234Z,984.98
2023-03-14T08:57:11.260Z,985.00
2023-03-14T08:59:44.318Z,985.01
2023-03-14T09:02:17.288Z,985.03
2023-03-14T09:04:50.112Z,985.05
2023-03-14T09:07:22.980Z,985.05
2023-03-14T09:09:56.132Z,985.04
2023-03-14T09:12:29.467Z,985.00
2023-03-14T09:15:03.224Z,984.98
2023-03-14T09:17:35.976Z,984.98
2023-03-14T09:20:09.075Z,985.00
2023-03-14T09:22:42.439Z,984.98
2023-03-14T09:25:16.313Z,984.98
2023-03-14T09:27:49.042Z,984.96
2023-03-14T09:30:22.504Z,984.96
2023-03-14T09:32:55.184Z,984.93
2023-03-14T09:35:28.560Z,984.89
2023-03-14T09:38:02.372Z,984.90
2023-03-14T09:40:34.987Z,984.91
2023-03-14T09:43:08.275Z,984.91
2023-03-14T09:45:41.418Z,984.92
2023-03-14T09:48:14.338Z,984.92
2023-03-14T09:50:47.292Z,984.93
2023-03-14T09:53:19.982Z,984.94
2023-03-14T09:55:53.396Z,984.97
2023-03-14T09:58:26.436Z,985.01
2023-03-14T10:01:00.134Z,985.03
2023-03-14T10:03:33.313Z,985.06
2023-03-14T10:06:06.297Z,985.07
2023-03-14T10:08:39.428Z,985.08
2023-03-14T10:11:12.322Z,985.08
2023-03-14T10:13:45.138Z,985.08
2023-03-14T10:16:18.470Z,985.07
2023-03-14T10:18:51.360Z,985.06
2023-03-14T10:21:24.294Z,985.06
2023-03-14T10:23:57.015Z,985.04
2023-03-14T10:26:30.354Z,985.02
2023-03-14T10:29:03.319Z,985.00
2023-03-14T10:31:36.343Z,984.99
2023-03-14T10:34:13.254Z,984.99
2023-03-14T10:36:46.267Z,984.97
2023-03-14T10:39:19.358Z,984.97
2023-03-14T10:41:52.204Z,984.96
2023-03-14T10:44:25.306Z,984.96
2023-03-14T10:46:58.332Z,984.95
2023-03-14T10:49:31.413Z,984.94
2023-03-14T10:52:04.392Z,984.95
2023-03-14T10:54:37.089Z,984.93
2023-03-14T10:57:14.333Z,984.96
2023-03-14T10:59:47.403Z,984.96
2023-03-14T11:02:20.408Z,984.97
2023-03-14T11:04:53.297Z,984.98
2023-03-14T11:07:26.260Z,985.02
2023-03-14T11:09:59.425Z,985.06
2023-03-14T11:12:38.320Z,985.09
2023-03-14T11:15:11.249Z,985.11
2023-03-14T11:17:44.485Z,985.12
2023-03-14T11:20:17.419Z,985.15
2023-03-14T11:22:50.460Z,985.19
2023-03-14T11:25:23.257Z,985.22
2023-03-14T11:27:56.382Z,985.26
2023-03-14T11:30:30.821Z,985.29
2023-03-14T11:33:02.809Z,985.30
2023-03-14T11:35:36.553Z,985.33
2023-03-14T11:38:09.503Z,985.36
2023-03-14T11:40:56.611Z,985.40
2023-03-14T11:43:30.652Z,985.46
2023-03-14T11:46:03.606Z,985.51
2023-03-14T11:48:36.342Z,985.55
2023-03-14T11:51:09.468Z,985.62
2023-03-14T11:53:42.418Z,985.67
2023-03-14T11:56:15.267Z,985.71
2023-03-14T11:58:48.376Z,985.79
2023-03-14T12:01:21.469Z,985.89
2023-03-14T12:03:54.289Z,985.99
2023-03-14T12:06:28.334Z,986.08
2023-03-14T12:09:01.666Z,986.18
2023-03-14T12:11:35.494Z,986.28
2023-03-14T12:14:08.295Z,986.40
2023-03-14T12:16:41.780Z,986.50
2023-03-14T12:19:14.612Z,986.64
2023-03-14T12:21:47.560Z,986.79
2023-03-14T12:24:20.562Z,986.91
2023-03-14T12:26:53.377Z,987.08
2023-03-14T12:29:26.709Z,987.24
2023-03-14T12:32:00.633Z,987.39
2023-03-14T12:34:33.243Z,987.53
2023-03-14T12:37:06.575Z,987.67
2023-03-14T12:39:39.223Z,987.80
2023-03-14T12:42:12.557Z,987.91
2023-03-14T12:44:45.444Z,988.01
2023-03-14T12:47:18.733Z,988.09
2023-03-14T12:49:52.600Z,988.17
2023-03-14T12:52:25.843Z,988.26
2023-03-14T12:54:59.629Z,988.36
2023-03-14T12:57:32.249Z,988.47
2023-03-14T13:00:05.742Z,988.58
2023-03-14T13:02:39.531Z,988.68
2023-03-14T13:05:26.716Z,988.79
2023-03-14T13:07:59.654Z,988.89
2023-03-14T13:10:38.117Z,988.98
2023-03-14T13:13:05.630Z,989.06
2023-03-14T13:15:38.564Z,989.12
2023-03-14T13:18:11.438Z,989.19
2023-03-14T13:20:44.638Z,989.25
2023-03-14T13:23:17.643Z,989.35
2023-03-14T13:25:50.381Z,989.44
2023-03-14T13:28:23.431Z,989.52
2023-03-14T13:30:56.630Z,989.62
2023-03-14T13:33:29.745Z,989.69
2023-03-14T13:36:02.464Z,989.80
2023-03-14T13:38:49.620Z,989.93
2023-03-14T13:41:22.671Z,990.08
2023-03-14T13:43:55.486Z,990.18
2023-03-14T13:46:28.665Z,990.28
2023-03-14T13:49:01.763Z,990.37
2023-03-14T13:51:34.651Z,990.49
2023-03-14T13:54:07.700Z,990.59
2023-03-14T13:56:41.791Z,990.69
2023-03-14T13:59:13.716Z,990.77
2023-03-14T14:01:46.786Z,990.87
2023-03-14T14:04:19.728Z,990.97
2023-03-14T14:06:52.970Z,991.04
2023-03-14T14:09:26.824Z,991.11
2023-03-14T14:12:14.984Z,991.16
2023-03-14T14:14:33.634Z,991.21
2023-03-14T14:17:06.696Z,991.27
2023-03-14T14:19:53.897Z,991.33
2023-03-14T14:22:27.805Z,991.37
2023-03-14T14:25:00.795Z,991.41
2023-03-14T14:27:33.638Z,991.46
2023-03-14T14:30:09.845Z,991.52
2023-03-14T14:32:43.861Z,991.59
2023-03-14T14:35:16.711Z,991.65
2023-03-14T14:37:49.746Z,991.70
2023-03-14T14:40:22.650Z,991.76
2023-03-14T14:42:55.714Z,991.80
2023-03-14T14:45:28.717Z,991.85
2023-03-14T14:48:01.714Z,991.91
2023-03-14T14:50:34.733Z,991.96
2023-03-14T14:53:07.804Z,992.02
2023-03-14T14:55:40.756Z,992.07
2023-03-14T14:58:13.901Z,992.13
2023-03-14T15:00:51.092Z,992.16
2023-03-14T15:03:21.798Z,992.22
2023-03-14T15:05:54.630Z,992.27
2023-03-14T15:08:27.818Z,992.32
2023-03-14T15:11:01.026Z,992.38
2023-03-14T15:13:34.792Z,992.41
2023-03-14T15:16:07.859Z,992.45
2023-03-14T15:18:40.708Z,992.48
2023-03-14T15:21:13.804Z,992.51
2023-03-14T15:23:47.021Z,992.55
2023-03-14T15:26:20.753Z,992.57
2023-03-14T15:28:53.775Z,992.61
2023-03-14T15:31:27.079Z,992.64
2023-03-14T15:34:00.827Z,992.65
2023-03-14T15:36:33.765Z,992.67
2023-03-14T15:39:06.829Z,992.68
2023-03-14T15:41:39.778Z,992.70
2023-03-14T15:44:12.689Z,992.73
2023-03-14T15:46:45.621Z,992.78
2023-03-14T15:49:18.584Z,992.80
2023-03-14T15:51:51.558Z,992.85
2023-03-14T15:54:24.922Z,992.86
2023-03-14T15:56:57.532Z,992.91
2023-03-14T15:59:30.650Z,992.95
2023-03-14T16:02:03.556Z,992.99
2023-03-14T16:04:36.623Z,993.04
2023-03-14T16:07:09.699Z,993.07
2023-03-14T16:09:42.646Z,993.10
2023-03-14T16:12:15.612Z,993.13
2023-03-14T16:14:48.858Z,993.18
2023-03-14T16:17:21.873Z,993.22
2023-03-14T16:19:54.730Z,993.26
2023-03-14T16:22:27.915Z,993.29
2023-03-14T16:25:00.708Z,993.32
2023-03-14T16:27:33.603Z,993.35
2023-03-14T16:30:06.777Z,993.40
2023-03-14T16:32:39.896Z,993.43
2023-03-14T16:35:12.866Z,993.47
2023-03-14T16:37:45.826Z,993.52
2023-03-14T16:40:18.614Z,993.58
2023-03-14T16:43:14.622Z,993.66
2023-03-14T16:45:24.589Z,993.71
2023-03-14T16:47:57.983Z,993.76
2023-03-14T16:50:30.957Z,993.82
2023-03-14T16:53:04.087Z,993.88
2023-03-14T16:55:37.905Z,993.93
2023-03-14T16:58:11.055Z,994.00
2023-03-14T17:00:44.813Z,994.04
2023-03-14T17:03:17.910Z,994.08
2023-03-14T17:05:50.727Z,994.12
2023-03-14T17:08:23.889Z,994.17
2023-03-14T17:10:57.000Z,994.22
2023-03-14T17:13:29.990Z,994.25
2023-03-14T17:16:05.087Z,994.30
2023-03-14T17:18:38.009Z,994.36
2023-03-14T17:21:11.058Z,994.43
2023-03-14T17:23:43.973Z,994.51
2023-03-14T17:26:16.978Z,994.58
2023-03-14T17:28:50.175Z,994.66
2023-03-14T17:31:23.756Z,994.75
2023-03-14T17:33:56.765Z,994.84
2023-03-14T17:36:30.039Z,994.94
2023-03-14T17:39:03.031Z,995.03
2023-03-14T17:41:35.990Z,995.12
2023-03-14T17:44:09.017Z,995.19
2023-03-14T17:46:42.008Z,995.29
2023-03-14T17:49:15.014Z,995.37
2023-03-14T17:51:47.991Z,995.45
2023-03-14T17:54:20.689Z,995.52
2023-03-14T17:56:53.966Z,995.60
2023-03-14T17:59:26.775Z,995.66
2023-03-14T18:02:00.127Z,995.75
2023-03-14T18:04:32.895Z,995.82
2023-03-14T18:07:05.925Z,995.88
2023-03-14T18:09:38.727Z,995.94
2023-03-14T18:12:12.169Z,995.99
2023-03-14T18:14:44.989Z,996.06
2023-03-14T18:17:17.733Z,996.14
2023-03-14T18:19:54.939Z,996.21
2023-03-14T18:22:27.870Z,996.28
2023-03-14T18:25:00.937Z,996.36
2023-03-14T18:27:33.784Z,996.42
2023-03-14T18:30:07.030Z,996.50
2023-03-14T18:32:39.860Z,996.58
2023-03-14T18:35:12.742Z,996.66
2023-03-14T18:37:46.266Z,996.75
2023-03-14T18:40:18.767Z,996.81
2023-03-14T18:42:51.952Z,996.89
2023-03-14T18:45:25.232Z,996.97
2023-03-14T18:47:59.138Z,997.04
2023-03-14T18:50:32.156Z,997.12
2023-03-14T18:53:05.244Z,997.19
2023-03-14T18:55:39.066Z,997.24
2023-03-14T18:58:11.959Z,997.30
2023-03-14T19:00:45.061Z,997.37
2023-03-14T19:03:17.966Z,997.46
2023-03-14T19:05:50.869Z,997.54
2023-03-14T19:08:24.084Z,997.61
2023-03-14T19:10:57.151Z,997.68
2023-03-14T19:13:30.366Z,997.76
2023-03-14T19:16:04.361Z,997.81
2023-03-14T19:18:38.256Z,997.86
2023-03-14T19:21:10.945Z,997.90
2023-03-14T19:23:44.274Z,997.93
2023-03-14T19:26:17.834Z,997.96
2023-03-14T19:28:51.050Z,998.02
2023-03-14T19:31:23.924Z,998.10
2023-03-14T19:33:56.910Z,998.16
2023-03-14T19:36:29.896Z,998.20
2023-03-14T19:39:02.983Z,998.27
2023-03-14T19:41:36.130Z,998.33
2023-03-14T19:44:09.021Z,998.43
2023-03-14T19:46:42.041Z,998.52
2023-03-14T19:49:14.879Z,998.60
2023-03-14T19:51:47.982Z,998.68
2023-03-14T19:54:20.871Z,998.75
2023-03-14T19:56:54.226Z,998.80
2023-03-14T19:59:27.304Z,998.88
2023-03-14T20:02:00.299Z,998.95
2023-03-14T20:04:33.220Z,999.05
2023-03-14T20:07:05.981Z,999.16
2023-03-14T20:09:39.232Z,999.25
2023-03-14T20:12:12.109Z,999.33
2023-03-14T20:14:45.209Z,999.43
2023-03-14T20:17:17.908Z,999.51
2023-03-14T20:19:50.935Z,999.59
2023-03-14T20:22:24.069Z,999.69
2023-03-14T20:24:58.972Z,999.76
2023-03-14T20:27:30.296Z,999.82
2023-03-14T20:30:03.165Z,999.87
2023-03-14T20:32:36.253Z,999.91
2023-03-14T20:35:09.290Z,999.96
2023-03-14T20:37:41.965Z,999.99
2023-03-14T20:40:15.247Z,1000.04
2023-03-14T20:42:47.974Z,1000.09
2023-03-14T20:45:20.961Z,1000.13
2023-03-14T20:47:54.330Z,1000.17
2023-03-14T20:50:27.315Z,1000.21
2023-03-14T20:53:02.392Z,1000.24
2023-03-14T20:55:35.221Z,1000.27
2023-03-14T20:58:08.086Z,1000.28
2023-03-14T21:00:41.270Z,1000.31
2023-03-14T21:03:14.176Z,1000.34
2023-03-14T21:05:50.289Z,1000.37
2023-03-14T21:08:23.385Z,1000.40
2023-03-14T21:10:56.454Z,1000.43
2023-03-14T21:13:30.302Z,1000.47
2023-03-14T21:16:03.271Z,1000.51
2023-03-14T21:18:36.119Z,1000.53
2023-03-14T21:21:09.333Z,1000.56
2023-03-14T21:23:42.232Z,1000.60
2023-03-14T21:26:15.274Z,1000.66
2023-03-14T21:28:48.249Z,1000.69
2023-03-14T21:31:25.569Z,1000.73
2023-03-14T21:33:57.414Z,1000.77
2023-03-14T21:36:30.312Z,1000.80
2023-03-14T21:39:17.230Z,1000.82
2023-03-14T21:41:50.521Z,1000.84
2023-03-14T21:44:24.321Z,1000.83
2023-03-14T21:46:57.416Z,1000.82
2023-03-14T21:49:30.503Z,1000.82
2023-03-14T21:52:04.404Z,1000.83
2023-03-14T21:54:37.458Z,1000.86
2023-03-14T21:57:10.348Z,1000.89
2023-03-14T21:59:43.360Z,1000.91
2023-03-14T22:02:16.487Z,1000.98
2023-03-14T22:04:49.377Z,1001.02
2023-03-14T22:07:22.159Z,1001.05
2023-03-14T22:09:55.286Z,1001.10
2023-03-14T22:12:28.419Z,1001.11
2023-03-14T22:15:01.456Z,1001.16
2023-03-14T22:17:34.493Z,1001.20
2023-03-14T22:20:07.373Z,1001.23
2023-03-14T22:22:40.656Z,1001.27
2023-03-14T22:25:14.556Z,1001.30
2023-03-14T22:27:48.094Z,1001.34
2023-03-14T22:30:21.349Z,1001.38
2023-03-14T22:32:54.492Z,1001.43
2023-03-14T22:35:27.538Z,1001.48
2023-03-14T22:38:01.537Z,1001.53
2023-03-14T22:40:34.530Z,1001.57
2023-03-14T22:43:07.412Z,1001.62
2023-03-14T22:45:40.534Z,1001.67
2023-03-14T22:48:13.288Z,1001.71
2023-03-14T22:50:46.150Z,1001.74
2023-03-14T22:53:19.546Z,1001.78
2023-03-14T22:55:52.279Z,1001.83
2023-03-14T22:58:25.204Z,1001.89
2023-03-14T23:00:58.507Z,1001.94
2023-03-14T23:03:31.338Z,1002.00
2023-03-14T23:06:04.488Z,1002.04
2023-03-14T23:08:37.182Z,1002.09
2023-03-14T23:11:10.445Z,1002.14
2023-03-14T23:13:43.492Z,1002.17
2023-03-14T23:16:16.508Z,1002.21
2023-03-14T23:18:49.496Z,1002.23
2023-03-14T23:21:22.489Z,1002.27
2023-03-14T23:23:55.315Z,1002.30
2023-03-14T23:26:28.320Z,1002.33
2023-03-14T23:29:01.594Z,1002.37
2023-03-14T23:31:34.335Z,1002.41
2023-03-14T23:34:07.572Z,1002.45
2023-03-14T23:36:40.690Z,1002.47
2023-03-14T23:39:14.295Z,1002.51
2023-03-14T23:41:47.302Z,1002.55
2023-03-14T23:44:20.469Z,1002.59
2023-03-14T23:46:53.536Z,1002.62
2023-03-14T23:49:30.410Z,1002.65
2023-03-14T23:52:03.523Z,1002.69
2023-03-14T23:54:36.344Z,1002.71
2023-03-14T23:57:09.329Z,1002.75
2023-03-14T23:59:42.377Z,1002.78
